Time;durP1;ratioP1;P1;durP2;ratioP2;P2;SDS_P1;SDS_P2;PMS_P1;PMS_P2;Temp;Humidity;BMP_temperature;BMP_pressure;BME280_temperature;BME280_humidity;BME280_pressure;Samples;Min_cycle;Max_cycle;Signal;HPM_P1;HPM_P2
2022/05/01 00:01:42;;;;;;;15.68;10.18;;;;;;;13.74;64.51;100712.41;5112322;28;20088;-66
2022/05/01 00:04:07;;;;;;;12.27;9.77;;;;;;;13.79;63.75;100709.28;5112202;28;20106;-66
2022/05/01 00:06:33;;;;;;;13.55;9.70;;;;;;;13.81;64.50;100711.81;5112042;28;20031;-66
2022/05/01 00:09:02;;;;;;;15.10;9.48;;;;;;;13.77;64.02;100697.81;5112218;28;20468;-66
2022/05/01 00:11:30;;;;;;;18.25;11.00;;;;;;;13.74;64.33;100690.00;5112168;28;20026;-66
2022/05/01 00:13:57;;;;;;;12.30;9.90;;;;;;;13.81;65.19;100701.91;5112511;28;20030;-66
2022/05/01 00:16:23;;;;;;;13.27;9.90;;;;;;;13.77;64.85;100695.94;5093966;28;20058;-66
2022/05/01 00:18:48;;;;;;;12.52;8.35;;;;;;;13.77;63.26;100681.63;5111889;28;20487;-66
2022/05/01 00:21:14;;;;;;;9.32;7.70;;;;;;;13.87;62.48;100704.00;5112477;28;20462;-66
2022/05/01 00:23:39;;;;;;;11.75;8.02;;;;;;;13.92;61.98;100695.47;5111897;28;20089;-67
2022/05/01 00:26:06;;;;;;;11.57;7.88;;;;;;;13.93;62.83;100700.72;5111900;28;20035;-66
2022/05/01 00:28:33;;;;;;;11.52;7.80;;;;;;;13.92;62.04;100699.00;5111939;28;20051;-66
2022/05/01 00:30:59;;;;;;;12.13;7.90;;;;;;;13.95;61.79;100697.88;5093561;28;20062;-66
2022/05/01 00:36:26;;;;;;;12.77;7.90;;;;;;;13.93;60.83;100695.31;5111113;28;20118;-66
2022/05/01 00:39:03;;;;;;;13.30;7.30;;;;;;;13.89;60.39;100693.91;5093477;28;20059;-66
2022/05/01 00:41:32;;;;;;;11.95;7.10;;;;;;;13.98;59.53;100703.81;5111684;28;20032;-66
2022/05/01 00:44:03;;;;;;;14.13;7.32;;;;;;;13.98;59.61;100698.44;5111246;28;20032;-66
2022/05/01 00:46:33;;;;;;;11.35;7.15;;;;;;;13.95;59.36;100685.25;5111704;28;20039;-66
2022/05/01 00:49:01;;;;;;;8.82;7.15;;;;;;;13.99;59.54;100694.72;5111396;28;20038;-66
2022/05/01 00:51:30;;;;;;;11.20;6.82;;;;;;;14.09;59.66;100709.03;5093203;28;20031;-66
2022/05/01 00:53:55;;;;;;;11.50;6.90;;;;;;;14.09;59.50;100709.03;5108821;28;20019;-66
2022/05/01 00:56:21;;;;;;;13.05;7.72;;;;;;;14.07;59.49;100708.34;5111056;28;20039;-66
2022/05/01 00:58:48;;;;;;;9.23;6.75;;;;;;;14.12;58.99;100716.81;5093050;28;20047;-66
2022/05/01 01:01:14;;;;;;;13.70;8.02;;;;;;;14.09;59.84;100717.13;5093197;28;20036;-66
2022/05/01 01:03:40;;;;;;;8.52;6.78;;;;;;;14.03;59.48;100706.94;5093071;28;20149;-66
2022/05/01 01:06:06;;;;;;;10.65;7.28;;;;;;;14.00;59.15;100704.53;5111295;28;20102;-66
2022/05/01 01:08:32;;;;;;;17.27;7.20;;;;;;;14.01;59.56;100708.06;5092984;28;20030;-66
2022/05/01 01:10:57;;;;;;;8.98;6.80;;;;;;;14.04;59.74;100710.47;5111089;28;20023;-66
2022/05/01 01:13:27;;;;;;;9.45;6.93;;;;;;;13.99;59.86;100720.88;5111361;28;20047;-66
2022/05/01 01:15:54;;;;;;;9.70;7.32;;;;;;;13.92;59.94;100712.50;5110968;28;20064;-66
2022/05/01 01:18:20;;;;;;;10.63;7.65;;;;;;;13.85;59.71;100700.59;5111330;28;20066;-66
2022/05/01 01:20:46;;;;;;;9.90;7.07;;;;;;;13.89;59.74;100717.34;5111050;28;20040;-66
2022/05/01 01:23:13;;;;;;;10.38;7.75;;;;;;;13.89;59.76;100720.88;5111190;28;20119;-66
2022/05/01 01:25:39;;;;;;;9.27;7.22;;;;;;;13.89;59.96;100726.28;5110959;28;20669;-66
2022/05/01 01:28:05;;;;;;;11.60;7.40;;;;;;;13.80;60.05;100705.56;5092834;28;20024;-67
2022/05/01 01:33:21;;;;;;;11.60;7.47;;;;;;;13.75;60.12;100697.09;5110988;28;20030;-66
2022/05/01 01:35:49;;;;;;;10.20;8.27;;;;;;;13.80;60.42;100719.06;5110606;28;20027;-66
2022/05/01 01:38:16;;;;;;;9.25;7.63;;;;;;;13.68;60.76;100701.38;5110950;28;20440;-66
2022/05/01 01:40:46;;;;;;;8.45;7.55;;;;;;;13.67;60.96;100700.50;5090078;28;20065;-66
2022/05/01 01:43:13;;;;;;;12.43;7.57;;;;;;;13.66;61.18;100706.03;5108207;28;20027;-66
2022/05/01 01:45:38;;;;;;;12.43;8.18;;;;;;;13.67;61.24;100715.81;5113248;28;20051;-66
2022/05/01 01:48:13;;;;;;;12.55;8.02;;;;;;;13.61;62.01;100711.84;5114975;28;20062;-66
2022/05/01 01:50:39;;;;;;;11.82;8.05;;;;;;;13.59;61.94;100707.63;5114913;28;20108;-66
2022/05/01 01:53:06;;;;;;;12.73;7.90;;;;;;;13.56;62.70;100710.59;5114839;28;20620;-66
2022/05/01 01:55:37;;;;;;;10.10;7.22;;;;;;;13.50;62.96;100703.94;5114984;28;20039;-66
2022/05/01 01:58:03;;;;;;;9.45;6.93;;;;;;;13.48;63.35;100713.19;5096148;28;20187;-66
2022/05/01 02:00:29;;;;;;;11.75;8.70;;;;;;;13.40;63.95;100705.81;5096630;28;20080;-66
2022/05/01 02:03:06;;;;;;;9.70;7.47;;;;;;;13.35;64.43;100709.94;5096367;28;20106;-66
2022/05/01 02:05:34;;;;;;;9.00;7.90;;;;;;;13.31;64.71;100705.78;5113573;28;20027;-66
2022/05/01 02:08:00;;;;;;;10.57;7.60;;;;;;;13.21;65.54;100694.16;5096210;28;20066;-70
2022/05/01 02:10:26;;;;;;;11.55;8.20;;;;;;;13.17;66.02;100703.53;5095022;28;20031;-71
2022/05/01 02:12:52;;;;;;;10.88;8.13;;;;;;;13.09;66.53;100687.25;5113380;28;20031;-71
2022/05/01 02:15:18;;;;;;;9.93;7.75;;;;;;;13.11;66.90;100702.25;5113433;28;20023;-70
2022/05/01 02:17:45;;;;;;;9.60;8.32;;;;;;;13.02;67.62;100695.03;5113180;28;20502;-71
2022/05/01 02:20:11;;;;;;;13.40;8.50;;;;;;;13.02;68.00;100700.41;5094932;28;20070;-71
2022/05/01 02:22:39;;;;;;;12.77;8.98;;;;;;;12.97;68.58;100696.41;5113323;28;20067;-71
2022/05/01 02:25:07;;;;;;;9.35;8.20;;;;;;;12.96;68.47;100700.09;5113525;28;20475;-66
2022/05/01 02:27:32;;;;;;;10.20;8.70;;;;;;;12.93;69.02;100700.38;5114425;28;20031;-66
2022/05/01 02:29:58;;;;;;;9.65;8.40;;;;;;;12.90;69.00;100703.34;5113967;28;20027;-66
2022/05/01 02:32:24;;;;;;;13.15;9.13;;;;;;;12.85;69.70;100701.09;5113956;28;20023;-66
2022/05/01 02:34:49;;;;;;;11.73;9.38;;;;;;;12.76;69.73;100688.44;5114143;28;20360;-66
2022/05/01 02:37:15;;;;;;;13.05;9.10;;;;;;;12.79;69.75;100698.94;5113304;28;20121;-66
2022/05/01 02:39:40;;;;;;;10.70;8.55;;;;;;;12.80;69.63;100697.09;5112813;28;20015;-66
2022/05/01 02:42:06;;;;;;;12.20;8.63;;;;;;;12.69;70.17;100687.31;5111982;28;20020;-71
2022/05/01 02:44:32;;;;;;;11.90;7.93;;;;;;;12.77;70.32;100700.09;5112148;28;20106;-66
2022/05/01 02:46:57;;;;;;;14.25;9.63;;;;;;;12.70;70.74;100690.84;5095033;28;20164;-66
2022/05/01 02:49:23;;;;;;;12.15;9.02;;;;;;;12.71;70.87;100695.25;5113779;28;20099;-66
2022/05/01 02:51:49;;;;;;;12.93;9.38;;;;;;;12.71;71.41;100697.94;5111191;28;20032;-66
2022/05/01 02:54:14;;;;;;;11.18;8.98;;;;;;;12.67;71.98;100686.59;5113572;28;20031;-66
2022/05/01 02:56:40;;;;;;;12.10;9.00;;;;;;;12.65;72.37;100695.81;5111763;28;20039;-66
2022/05/01 02:59:09;;;;;;;13.05;9.35;;;;;;;12.63;72.69;100692.38;5094238;28;20023;-66
2022/05/01 03:01:37;;;;;;;11.75;9.13;;;;;;;12.55;73.25;100681.47;5112419;28;20049;-66
2022/05/01 03:04:03;;;;;;;13.68;9.80;;;;;;;12.56;73.52;100683.16;5112208;28;20491;-66
2022/05/01 03:06:29;;;;;;;13.98;10.10;;;;;;;12.58;73.75;100694.66;5112439;28;20030;-66
2022/05/01 03:08:55;;;;;;;14.85;11.23;;;;;;;12.56;74.24;100692.09;5112388;28;20027;-66
2022/05/01 03:11:21;;;;;;;16.98;10.73;;;;;;;12.54;74.72;100690.53;5112184;28;20686;-66
2022/05/01 03:13:47;;;;;;;16.77;11.70;;;;;;;12.53;75.40;100681.63;5093708;28;20106;-66
2022/05/01 03:16:13;;;;;;;16.58;11.52;;;;;;;12.50;75.20;100687.28;5111803;28;20051;-66
2022/05/01 03:24:07;;;;;;;22.65;13.05;;;;;;;12.42;75.26;100683.56;5111761;28;20076;-65
2022/05/01 03:26:33;;;;;;;18.15;12.02;;;;;;;12.42;75.72;100691.63;5112011;28;20399;-66
2022/05/01 03:28:59;;;;;;;25.90;13.55;;;;;;;12.38;75.22;100693.72;5111724;28;20544;-66
2022/05/01 03:31:27;;;;;;;28.48;12.35;;;;;;;12.39;75.99;100698.16;5111733;28;20027;-66
2022/05/01 03:33:53;;;;;;;21.13;13.70;;;;;;;12.37;75.55;100700.13;5093276;28;20114;-66
2022/05/01 03:36:19;;;;;;;18.40;13.45;;;;;;;12.35;76.32;100706.63;5111437;28;20468;-66
2022/05/01 03:38:44;;;;;;;20.13;13.77;;;;;;;12.29;76.79;100696.41;5111347;28;20023;-66
2022/05/01 03:41:14;;;;;;;19.25;12.18;;;;;;;12.30;77.53;100700.78;5092943;28;20031;-66
2022/05/01 03:43:40;;;;;;;27.40;12.00;;;;;;;12.30;77.33;100706.16;5111573;28;20027;-66
2022/05/01 03:46:06;;;;;;;17.55;12.00;;;;;;;12.29;77.77;100705.31;5092860;28;20024;-66
2022/05/01 03:48:32;;;;;;;14.30;10.75;;;;;;;12.29;78.19;100704.47;5111534;28;20402;-67
2022/05/01 03:50:58;;;;;;;14.98;11.23;;;;;;;12.21;78.54;100698.91;5093088;28;20039;-66
2022/05/01 03:53:24;;;;;;;16.52;10.98;;;;;;;12.24;78.32;100702.19;5111375;28;20029;-66
2022/05/01 03:55:51;;;;;;;15.93;10.82;;;;;;;12.29;78.62;100709.84;5110993;28;20106;-66
2022/05/01 03:58:17;;;;;;;13.13;10.65;;;;;;;12.25;77.37;100698.50;5092907;28;20531;-66
2022/05/01 04:00:47;;;;;;;14.32;10.98;;;;;;;12.20;77.34;100695.41;5092769;28;20043;-66
2022/05/01 04:03:16;;;;;;;12.43;10.13;;;;;;;12.30;76.10;100712.41;5110867;28;20032;-66
2022/05/01 04:05:42;;;;;;;12.73;10.80;;;;;;;12.26;76.65;100702.06;5109285;28;20031;-71
2022/05/01 04:08:09;;;;;;;14.45;10.18;;;;;;;12.34;76.44;100721.03;5110713;28;20088;-71
2022/05/01 04:10:40;;;;;;;15.65;10.48;;;;;;;12.33;76.10;100714.84;5111153;28;20463;-71
2022/05/01 04:13:06;;;;;;;17.50;10.77;;;;;;;12.40;76.33;100725.88;5093310;28;20028;-67
2022/05/01 04:15:32;;;;;;;17.27;10.40;;;;;;;12.40;76.18;100721.38;5111947;28;20039;-66
2022/05/01 04:17:58;;;;;;;13.77;10.65;;;;;;;12.41;76.56;100712.28;5093832;28;20030;-67
2022/05/01 04:20:25;;;;;;;13.13;10.10;;;;;;;12.44;77.48;100713.84;5093567;28;20028;-66
2022/05/01 04:22:52;;;;;;;15.70;10.65;;;;;;;12.46;77.39;100704.69;5093461;28;20451;-67
2022/05/01 04:25:26;;;;;;;17.90;11.43;;;;;;;12.53;77.47;100713.91;5111510;28;20031;-67
2022/05/01 04:27:56;;;;;;;16.65;10.77;;;;;;;12.51;77.04;100694.34;5111268;28;20112;-67
2022/05/01 04:30:22;;;;;;;13.93;11.77;;;;;;;12.64;76.50;100719.16;5111554;28;20092;-67
2022/05/01 04:32:54;;;;;;;13.80;10.85;;;;;;;12.66;77.09;100711.81;5111262;28;20102;-67
2022/05/01 04:35:21;;;;;;;17.83;11.07;;;;;;;12.70;77.36;100717.75;5093334;28;20027;-67
2022/05/01 04:37:47;;;;;;;17.60;12.20;;;;;;;12.68;77.09;100704.47;5110820;28;20039;-68
2022/05/01 04:40:14;;;;;;;15.70;11.75;;;;;;;12.69;77.40;100703.47;5111130;28;20031;-67
2022/05/01 04:42:41;;;;;;;16.20;11.23;;;;;;;12.69;77.63;100705.28;5111296;28;20455;-66
2022/05/01 04:45:07;;;;;;;18.13;12.02;;;;;;;12.73;77.77;100710.25;5110683;28;20053;-66
2022/05/01 04:47:33;;;;;;;17.50;13.13;;;;;;;12.83;77.52;100731.81;5110665;28;20032;-66
2022/05/01 04:49:58;;;;;;;18.42;12.38;;;;;;;12.92;77.32;100733.66;5110871;28;20120;-66
2022/05/01 04:52:23;;;;;;;18.63;13.25;;;;;;;12.97;77.18;100729.56;5111102;28;21409;-66
2022/05/01 04:54:49;;;;;;;19.75;12.30;;;;;;;12.97;77.49;100726.03;5092428;28;20051;-66
2022/05/01 04:57:15;;;;;;;14.43;12.18;;;;;;;13.03;77.52;100725.50;5092708;28;20020;-67
2022/05/01 04:59:41;;;;;;;14.68;11.82;;;;;;;13.02;77.41;100731.84;5110874;28;20051;-67
2022/05/01 05:02:06;;;;;;;18.30;12.68;;;;;;;13.07;77.66;100732.31;5110416;28;20058;-66
2022/05/01 05:04:31;;;;;;;18.13;12.65;;;;;;;13.08;77.17;100728.63;5110381;28;20479;-66
2022/05/01 05:06:57;;;;;;;16.23;12.27;;;;;;;13.16;77.52;100745.75;5110396;28;20020;-66
2022/05/01 05:12:07;;;;;;;17.58;13.00;;;;;;;13.22;76.68;100739.81;5111420;28;20093;-66
2022/05/01 05:14:33;;;;;;;16.25;12.85;;;;;;;13.23;77.76;100743.38;5111687;28;20063;-66
2022/05/01 05:17:01;;;;;;;14.63;12.52;;;;;;;13.26;77.65;100735.00;5110507;28;20047;-67
2022/05/01 05:19:27;;;;;;;17.75;12.70;;;;;;;13.27;77.76;100742.09;5110537;28;20400;-67
2022/05/01 05:21:53;;;;;;;17.90;13.35;;;;;;;13.31;77.97;100738.13;5110901;28;20038;-67
2022/05/01 05:24:19;;;;;;;19.73;13.57;;;;;;;13.34;78.54;100741.38;5110912;28;20035;-67
2022/05/01 05:26:45;;;;;;;22.05;15.40;;;;;;;13.31;79.05;100727.34;5110716;28;20028;-67
2022/05/01 05:29:10;;;;;;;22.35;15.77;;;;;;;13.38;78.89;100736.56;5110735;28;20027;-67
2022/05/01 05:31:36;;;;;;;18.38;15.43;;;;;;;13.43;78.68;100734.28;5110750;28;20024;-67
2022/05/01 05:34:01;;;;;;;19.15;15.23;;;;;;;13.49;80.43;100748.06;5110547;28;20096;-67
2022/05/01 05:36:26;;;;;;;17.85;13.93;;;;;;;13.54;80.51;100748.47;5110665;28;20019;-67
2022/05/01 05:38:52;;;;;;;21.02;13.90;;;;;;;13.61;80.58;100751.47;5110632;28;20070;-67
2022/05/01 05:41:18;;;;;;;20.15;14.85;;;;;;;13.67;80.50;100748.16;5110785;28;20026;-67
2022/05/01 05:43:43;;;;;;;19.02;14.27;;;;;;;13.68;80.32;100737.22;5110779;28;20038;-67
2022/05/01 05:46:09;;;;;;;20.52;15.68;;;;;;;13.73;80.60;100743.06;5110817;28;20349;-67
2022/05/01 05:48:37;;;;;;;19.50;16.10;;;;;;;13.80;79.98;100737.94;5110846;28;20028;-66
2022/05/01 05:51:04;;;;;;;22.27;16.58;;;;;;;13.90;79.50;100744.19;5110414;28;20028;-66
2022/05/01 05:53:30;;;;;;;23.65;18.10;;;;;;;13.91;79.60;100735.06;5110533;28;20471;-67
2022/05/01 05:55:56;;;;;;;23.95;18.58;;;;;;;14.02;79.82;100750.25;5110390;28;20073;-67
2022/05/01 05:58:22;;;;;;;24.60;18.23;;;;;;;14.15;80.00;100762.41;5110511;28;20034;-67
2022/05/01 06:00:47;;;;;;;21.60;17.83;;;;;;;14.20;79.91;100760.13;5110147;28;20032;-67
2022/05/01 06:03:13;;;;;;;21.17;15.90;;;;;;;14.30;79.51;100770.91;5110651;28;20042;-67
2022/05/01 06:05:39;;;;;;;25.80;16.80;;;;;;;14.37;79.58;100762.06;5110485;28;20059;-67
2022/05/01 06:08:04;;;;;;;19.80;15.05;;;;;;;14.39;79.26;100760.09;5091700;28;20027;-67
2022/05/01 06:10:29;;;;;;;19.15;13.25;;;;;;;14.49;77.91;100776.22;5110498;28;20028;-67
2022/05/01 06:12:55;;;;;;;19.80;12.77;;;;;;;14.55;77.29;100770.25;5109929;28;20065;-68
2022/05/01 06:15:20;;;;;;;16.13;13.38;;;;;;;14.54;77.06;100761.28;5109640;28;20027;-67
2022/05/01 06:17:46;;;;;;;16.90;12.60;;;;;;;14.62;76.43;100765.94;5110049;28;20373;-67
2022/05/01 06:20:11;;;;;;;21.85;13.23;;;;;;;14.69;76.03;100776.00;5110183;28;20027;-67
2022/05/01 06:22:37;;;;;;;17.27;12.77;;;;;;;14.69;75.93;100770.59;5110005;28;20028;-67
2022/05/01 06:25:03;;;;;;;17.08;12.45;;;;;;;14.79;75.97;100770.53;5091668;28;20035;-67
2022/05/01 06:27:28;;;;;;;16.73;13.27;;;;;;;14.81;76.44;100773.94;5110126;28;20468;-67
2022/05/01 06:29:54;;;;;;;18.98;12.50;;;;;;;14.78;75.87;100761.59;5109668;28;20036;-67
2022/05/01 06:32:19;;;;;;;22.10;13.55;;;;;;;14.87;76.08;100768.78;5112959;28;20023;-67
2022/05/01 06:34:47;;;;;;;18.60;12.77;;;;;;;14.91;74.25;100778.31;5113547;28;20012;-67
2022/05/01 06:37:13;;;;;;;15.68;12.50;;;;;;;15.00;73.71;100784.66;5094868;28;20023;-67
2022/05/01 06:39:39;;;;;;;17.30;11.82;;;;;;;15.15;73.55;100778.56;5112459;28;20526;-67
2022/05/01 06:42:05;;;;;;;14.57;12.40;;;;;;;15.25;71.78;100779.34;5112032;28;20051;-67
2022/05/01 06:44:31;;;;;;;14.77;11.63;;;;;;;15.36;71.98;100773.75;5112230;28;20080;-67
2022/05/01 06:46:57;;;;;;;16.83;12.88;;;;;;;15.51;71.33;100764.09;5112227;28;20032;-67
2022/05/01 06:49:22;;;;;;;13.45;9.82;;;;;;;15.63;71.17;100762.00;5112100;28;20054;-67
2022/05/01 06:51:48;;;;;;;13.82;11.55;;;;;;;15.80;70.09;100775.50;5112066;28;20034;-67
2022/05/01 06:54:13;;;;;;;16.00;11.52;;;;;;;15.88;68.97;100763.88;5112024;28;20027;-67
2022/05/01 06:56:41;;;;;;;15.63;11.60;;;;;;;15.92;68.43;100759.03;5111912;28;20024;-68
2022/05/01 06:59:07;;;;;;;14.80;10.88;;;;;;;16.07;69.10;100768.25;5111489;28;20031;-66
2022/05/01 07:01:33;;;;;;;14.57;10.93;;;;;;;16.21;68.68;100762.25;5111757;28;20040;-67
2022/05/01 07:03:58;;;;;;;15.18;11.02;;;;;;;16.31;68.44;100769.25;5111599;28;20042;-67
2022/05/01 07:06:23;;;;;;;14.18;9.50;;;;;;;16.51;67.69;100767.19;5111528;28;20165;-68
2022/05/01 07:08:49;;;;;;;11.60;9.10;;;;;;;16.68;67.58;100763.56;5093447;28;20032;-67
2022/05/01 07:11:14;;;;;;;12.30;9.38;;;;;;;16.77;65.45;100760.69;5092203;28;20016;-68
2022/05/01 07:13:40;;;;;;;13.27;9.30;;;;;;;16.84;63.89;100764.47;5111562;28;20038;-67
2022/05/01 07:16:06;;;;;;;13.45;8.88;;;;;;;16.96;63.56;100756.91;5111276;28;20047;-67
2022/05/01 07:18:32;;;;;;;12.15;8.23;;;;;;;17.01;62.90;100749.97;5111203;28;20195;-68
2022/05/01 07:20:58;;;;;;;8.88;7.97;;;;;;;17.16;61.43;100755.59;5111152;28;20106;-67
2022/05/01 07:23:25;;;;;;;10.23;7.18;;;;;;;17.32;61.12;100769.19;5110958;28;20035;-67
2022/05/01 07:25:51;;;;;;;8.23;7.43;;;;;;;17.41;60.10;100770.91;5110363;28;20051;-67
2022/05/01 07:28:16;;;;;;;12.30;7.65;;;;;;;17.44;59.77;100765.13;5108682;28;20128;-67
2022/05/01 07:30:42;;;;;;;10.18;7.35;;;;;;;17.50;59.39;100761.75;5109590;28;20046;-67
2022/05/01 07:33:07;;;;;;;7.68;6.47;;;;;;;17.62;59.37;100773.97;5111035;28;20503;-68
2022/05/01 07:35:33;;;;;;;8.98;7.70;;;;;;;17.68;58.87;100766.03;5092673;28;20116;-67
2022/05/01 07:37:58;;;;;;;7.30;6.53;;;;;;;17.75;57.96;100768.91;5110913;28;20470;-67
2022/05/01 07:40:24;;;;;;;7.95;6.80;;;;;;;17.82;58.19;100764.50;5110596;28;20028;-67
2022/05/01 07:42:51;;;;;;;8.70;6.75;;;;;;;17.91;58.43;100761.63;5110108;27;20463;-67
2022/05/01 07:45:17;;;;;;;10.55;7.32;;;;;;;18.02;58.14;100757.69;5110781;28;20061;-67
2022/05/01 07:47:42;;;;;;;7.03;5.97;;;;;;;18.19;58.30;100772.09;5110713;28;20594;-68
2022/05/01 07:50:08;;;;;;;7.07;6.10;;;;;;;18.26;56.90;100754.94;5110484;28;20032;-68
2022/05/01 07:52:35;;;;;;;7.72;6.95;;;;;;;18.38;55.83;100766.31;5092429;28;20102;-67
2022/05/01 07:55:01;;;;;;;7.95;6.10;;;;;;;18.40;56.11;100766.97;5110522;28;20031;-68
2022/05/01 07:57:27;;;;;;;6.80;6.10;;;;;;;18.51;55.74;100759.28;5092100;28;20471;-68
2022/05/01 07:59:54;;;;;;;7.57;5.72;;;;;;;18.72;55.26;100765.00;5110188;28;20114;-67
2022/05/01 08:02:19;;;;;;;5.95;5.05;;;;;;;18.83;54.55;100747.47;5110282;28;20052;-67
2022/05/01 08:04:45;;;;;;;8.18;6.15;;;;;;;19.04;54.06;100764.00;5092120;28;20047;-68
2022/05/01 08:07:10;;;;;;;8.88;6.95;;;;;;;19.07;53.05;100741.91;5110164;28;20019;-67
2022/05/01 08:09:36;;;;;;;8.60;6.28;;;;;;;19.21;52.89;100743.84;5092192;28;20046;-68
2022/05/01 08:12:02;;;;;;;11.27;6.50;;;;;;;19.30;52.41;100750.97;5109873;28;20116;-70
2022/05/01 08:14:28;;;;;;;6.40;5.35;;;;;;;19.31;52.26;100730.91;5110530;28;20020;-71
2022/05/01 08:16:53;;;;;;;6.65;6.05;;;;;;;19.50;52.70;100741.28;5109735;28;20050;-71
2022/05/01 08:22:07;;;;;;;14.70;7.35;;;;;;;19.66;51.68;100727.56;5109661;28;20123;-71
2022/05/01 08:24:33;;;;;;;6.88;5.78;;;;;;;19.75;51.82;100727.31;5091504;28;20622;-71
2022/05/01 08:27:07;;;;;;;11.52;6.50;;;;;;;19.94;51.26;100726.81;5091509;28;20027;-71
2022/05/01 08:29:39;;;;;;;8.50;6.35;;;;;;;19.93;50.94;100730.53;5110019;28;20027;-71
2022/05/01 08:32:05;;;;;;;9.05;6.20;;;;;;;19.92;51.04;100709.78;5091185;28;20028;-71
2022/05/01 08:34:31;;;;;;;7.15;6.45;;;;;;;19.89;51.07;100712.03;5109801;28;20506;-71
2022/05/01 08:36:56;;;;;;;8.70;6.25;;;;;;;19.99;51.70;100718.91;5090790;28;20023;-71
2022/05/01 08:39:22;;;;;;;10.30;5.93;;;;;;;20.07;51.45;100713.41;5109545;28;20104;-71
2022/05/01 08:41:47;;;;;;;8.73;6.07;;;;;;;20.22;51.38;100710.72;5091188;28;20027;-71
2022/05/01 08:44:14;;;;;;;8.65;6.10;;;;;;;20.30;50.43;100707.88;5109537;28;20036;-71
2022/05/01 08:47:12;;;;;;;7.30;5.22;;;;;;;20.42;51.06;100702.81;5109481;28;20650;-71
2022/05/01 08:49:40;;;;;;;8.40;5.20;;;;;;;20.62;50.74;100714.81;5071313;28;20541;-71
2022/05/01 08:52:07;;;;;;;8.23;4.90;;;;;;;20.73;48.73;100712.44;5109046;28;20028;-71
2022/05/01 08:54:34;;;;;;;5.65;4.22;;;;;;;20.88;49.98;100705.09;5108605;28;20028;-70
2022/05/01 08:57:00;;;;;;;7.20;4.85;;;;;;;21.00;48.70;100709.06;5090897;28;20019;-71
2022/05/01 08:59:25;;;;;;;6.63;5.25;;;;;;;21.11;48.29;100704.97;5109213;28;20027;-71
2022/05/01 09:01:52;;;;;;;6.57;4.32;;;;;;;21.16;48.42;100697.91;5108771;28;20099;-71
2022/05/01 09:04:18;;;;;;;7.32;4.68;;;;;;;21.29;47.48;100700.78;5108959;28;20027;-71
2022/05/01 09:06:45;;;;;;;4.50;3.72;;;;;;;21.35;46.65;100699.97;5109109;28;20027;-71
2022/05/01 09:09:21;;;;;;;4.97;4.30;;;;;;;21.44;45.93;100707.00;5090710;28;20030;-71
2022/05/01 09:14:33;;;;;;;7.15;3.13;;;;;;;21.46;43.83;100694.03;5109810;28;20038;-71
2022/05/01 09:17:30;;;;;;;5.82;2.97;;;;;;;21.55;43.80;100697.47;5108736;28;20138;-71
2022/05/01 09:20:07;;;;;;;4.03;3.33;;;;;;;21.48;43.65;100691.09;5052306;28;20438;-71
2022/05/01 09:22:51;;;;;;;4.93;3.63;;;;;;;21.57;44.07;100698.94;5109060;28;20031;-71
2022/05/01 09:25:19;;;;;;;5.40;3.58;;;;;;;21.55;42.78;100692.00;5108097;28;20058;-71
2022/05/01 09:27:45;;;;;;;5.95;3.05;;;;;;;21.45;42.90;100673.22;5108883;28;20037;-70
2022/05/01 09:30:10;;;;;;;6.15;3.33;;;;;;;21.56;41.99;100694.53;5108936;28;20020;-71
2022/05/01 09:32:38;;;;;;;5.80;3.55;;;;;;;21.62;42.84;100687.44;5109543;28;20036;-71
2022/05/01 09:35:07;;;;;;;7.70;4.18;;;;;;;21.72;43.75;100683.34;5109257;28;20463;-71
2022/05/01 09:37:33;;;;;;;3.55;2.78;;;;;;;21.87;42.74;100692.31;5109138;28;20024;-70
2022/05/01 09:39:58;;;;;;;5.65;3.45;;;;;;;21.99;40.96;100689.88;5109313;28;20020;-71
2022/05/01 09:42:25;;;;;;;7.35;3.17;;;;;;;22.10;39.66;100675.66;5109336;28;20073;-71
2022/05/01 09:45:12;;;;;;;6.47;3.67;;;;;;;22.15;38.77;100679.47;5091080;28;20502;-71
2022/05/01 09:47:46;;;;;;;4.80;3.10;;;;;;;22.00;38.26;100656.91;5109424;28;20118;-71
2022/05/01 09:50:14;;;;;;;3.58;3.22;;;;;;;22.22;38.87;100674.88;5109234;28;20032;-71
2022/05/01 09:53:00;;;;;;;4.25;3.20;;;;;;;22.26;38.27;100676.19;5109543;28;20030;-71
2022/05/01 09:55:27;;;;;;;3.22;2.92;;;;;;;22.33;39.10;100659.81;5091293;28;20023;-71
2022/05/01 09:58:14;;;;;;;4.20;3.00;;;;;;;22.38;38.34;100651.03;5090906;28;20024;-71
2022/05/01 10:00:44;;;;;;;3.80;3.35;;;;;;;22.53;37.90;100658.06;5109310;28;20038;-71
2022/05/01 10:03:18;;;;;;;3.67;3.38;;;;;;;22.57;38.00;100659.34;5109113;28;20053;-71
2022/05/01 10:05:45;;;;;;;6.85;3.15;;;;;;;22.48;37.63;100654.22;5110099;28;20039;-71
2022/05/01 10:08:12;;;;;;;3.63;3.10;;;;;;;22.52;37.45;100671.94;5112837;28;20475;-71
2022/05/01 10:10:41;;;;;;;5.03;3.20;;;;;;;22.52;37.81;100656.38;5094586;28;20407;-71
2022/05/01 10:13:06;;;;;;;4.57;3.85;;;;;;;22.71;36.40;100658.34;5112462;28;20231;-71
2022/05/01 10:15:33;;;;;;;4.80;3.63;;;;;;;22.69;36.67;100663.19;5112203;28;20077;-71
2022/05/01 10:18:01;;;;;;;6.00;3.20;;;;;;;22.62;36.89;100648.63;5093814;28;20032;-71
2022/05/01 10:20:28;;;;;;;3.00;2.70;;;;;;;22.72;37.05;100640.88;5112172;28;20489;-71
2022/05/01 10:22:55;;;;;;;5.38;3.20;;;;;;;22.77;36.40;100626.59;5112330;28;20110;-71
2022/05/01 10:25:20;;;;;;;4.47;3.15;;;;;;;22.71;35.93;100627.41;5112658;28;20027;-71
2022/05/01 10:28:05;;;;;;;5.40;3.40;;;;;;;22.81;36.40;100644.28;5113015;28;20028;-71
2022/05/01 10:33:46;;;;;;;7.00;3.28;;;;;;;22.81;35.84;100642.41;5112622;28;20042;-71
2022/05/01 10:36:37;;;;;;;5.93;3.40;;;;;;;22.67;35.64;100635.22;5094922;28;20023;-70
2022/05/01 10:39:06;;;;;;;6.53;3.70;;;;;;;22.61;36.31;100638.75;5113312;28;20535;-70
2022/05/01 10:41:33;;;;;;;4.40;2.70;;;;;;;22.57;37.12;100631.16;5094870;28;20577;-70
2022/05/01 10:44:00;;;;;;;3.17;2.88;;;;;;;22.58;37.38;100611.81;5112760;28;20034;-70
2022/05/01 10:46:31;;;;;;;3.45;3.15;;;;;;;22.59;36.56;100621.69;5095029;28;20035;-71
2022/05/01 10:49:00;;;;;;;3.30;2.85;;;;;;;22.50;37.08;100622.91;5113314;28;20063;-70
2022/05/01 10:51:36;;;;;;;5.65;3.20;;;;;;;22.42;36.86;100620.34;5113425;28;20028;-70
2022/05/01 10:54:10;;;;;;;3.80;3.08;;;;;;;22.57;37.29;100618.31;5093788;28;20040;-71
2022/05/01 10:56:37;;;;;;;3.38;2.92;;;;;;;22.68;36.69;100609.53;5103734;28;20110;-70
2022/05/01 10:59:29;;;;;;;10.48;3.35;;;;;;;22.63;36.28;100616.69;5094196;28;20118;-70
2022/05/01 11:01:56;;;;;;;5.65;3.30;;;;;;;22.45;36.04;100625.41;5083180;28;20114;-70
2022/05/01 11:04:21;;;;;;;4.10;3.10;;;;;;;22.42;36.32;100619.50;5099229;28;20420;-69
2022/05/01 11:06:55;;;;;;;5.07;3.15;;;;;;;22.32;36.37;100606.22;5103681;28;20130;-69
2022/05/01 11:09:25;;;;;;;5.35;4.00;;;;;;;22.26;36.28;100607.88;5103321;28;20056;-69
2022/05/01 11:11:57;;;;;;;4.70;3.47;;;;;;;22.38;36.89;100608.13;5107263;28;20031;-70
2022/05/01 11:14:33;;;;;;;4.13;3.15;;;;;;;22.38;36.67;100606.22;5100538;28;20024;-70
2022/05/01 11:16:58;;;;;;;7.65;3.28;;;;;;;22.30;35.98;100620.09;5101529;28;20058;-71
2022/05/01 11:19:28;;;;;;;4.63;3.33;;;;;;;22.22;35.99;100603.84;5089407;28;20367;-71
2022/05/01 11:21:55;;;;;;;4.97;3.03;;;;;;;22.17;36.52;100589.94;5081653;28;20036;-71
2022/05/01 11:24:39;;;;;;;3.95;3.35;;;;;;;22.01;35.30;100598.47;5102562;28;20539;-71
2022/05/01 11:27:11;;;;;;;4.63;3.17;;;;;;;21.95;36.42;100598.44;5104927;28;20055;-71
2022/05/01 11:29:37;;;;;;;5.65;3.53;;;;;;;21.91;36.87;100591.69;5103576;28;20556;-69
2022/05/01 11:32:45;;;;;;;4.15;3.00;;;;;;;21.88;36.88;100595.69;5104952;28;20436;-69
2022/05/01 11:35:11;;;;;;;3.72;3.00;;;;;;;21.78;37.01;100606.13;5097718;28;20113;-69
2022/05/01 11:37:48;;;;;;;6.13;3.47;;;;;;;21.68;37.37;100575.56;5101921;28;20121;-70
2022/05/01 11:40:26;;;;;;;6.90;4.25;;;;;;;21.83;37.27;100589.94;5098182;28;20032;-70
2022/05/01 11:42:53;;;;;;;3.67;2.58;;;;;;;21.87;37.05;100577.59;5102585;28;20036;-70